createdAt,value
2018-12-29T12:27:06.774Z,60.20
2018-12-29T12:32:10.375Z,59.86
2018-12-29T12:37:14.135Z,59.78
2018-12-29T12:42:17.492Z,59.75
2018-12-29T12:47:20.959Z,59.95
2018-12-29T12:52:24.338Z,59.84
2018-12-29T12:57:27.897Z,59.82
2018-12-29T13:02:31.336Z,60.05
2018-12-29T13:07:34.804Z,59.69
2018-12-29T13:12:38.237Z,59.89
2018-12-29T13:17:41.649Z,59.84
2018-12-29T13:22:45.164Z,60.06
2018-12-29T13:27:48.569Z,60.15
2018-12-29T13:32:52.160Z,60.55
2018-12-29T13:37:55.634Z,60.48
2018-12-29T13:42:59.113Z,60.37
2018-12-29T13:48:02.761Z,60.48
2018-12-29T13:53:06.358Z,60.48
2018-12-29T13:58:09.852Z,60.91
2018-12-29T14:03:13.316Z,60.56
2018-12-29T14:08:16.737Z,60.76
2018-12-29T14:13:20.305Z,60.64
2018-12-29T14:18:28.113Z,60.65
2018-12-29T14:23:27.381Z,61.20
2018-12-29T14:28:31.047Z,61.51
2018-12-29T14:33:34.663Z,61.49
2018-12-29T14:38:38.164Z,61.78
2018-12-29T14:43:41.571Z,61.62
2018-12-29T14:48:45.305Z,61.65
2018-12-29T14:53:48.884Z,61.61
2018-12-29T14:58:52.420Z,62.20
2018-12-29T15:03:55.984Z,62.49
2018-12-29T15:08:59.516Z,61.92
2018-12-29T15:14:03.084Z,61.72
2018-12-29T15:19:06.735Z,61.76
2018-12-29T15:24:10.432Z,61.82
2018-12-29T15:29:13.880Z,61.80
2018-12-29T15:34:17.407Z,62.07
2018-12-29T15:39:20.915Z,62.05
2018-12-29T15:44:24.529Z,62.16
2018-12-29T15:49:28.058Z,61.92
2018-12-29T15:54:31.572Z,61.86
2018-12-29T15:59:35.092Z,62.34
2018-12-29T16:04:38.595Z,62.22
2018-12-29T16:09:42.175Z,62.81
2018-12-29T16:14:45.960Z,62.90
2018-12-29T16:19:49.508Z,62.80
2018-12-29T16:24:52.994Z,62.96
2018-12-29T16:29:56.464Z,62.88
2018-12-29T16:35:00.245Z,62.89
2018-12-29T16:40:03.477Z,63.40
2018-12-29T16:45:08.083Z,63.25
2018-12-29T16:50:11.520Z,63.54
2018-12-29T16:55:15.064Z,63.31
2018-12-29T17:00:18.615Z,63.05
2018-12-29T17:05:22.155Z,63.58
2018-12-29T17:10:25.660Z,63.43
2018-12-29T17:15:29.088Z,63.89
2018-12-29T17:20:32.484Z,63.74
2018-12-29T17:25:35.921Z,63.98
2018-12-29T17:30:40.347Z,63.94
2018-12-29T17:35:43.729Z,63.57
2018-12-29T17:40:47.245Z,63.85
2018-12-29T17:45:50.624Z,64.05
2018-12-29T17:50:54.231Z,63.94
2018-12-29T17:55:57.576Z,63.79
2018-12-29T18:01:01.075Z,64.06
2018-12-29T18:06:04.470Z,64.05
2018-12-29T18:11:08.051Z,64.37
2018-12-29T18:16:11.469Z,64.23
2018-12-29T18:21:15.070Z,64.29
2018-12-29T18:26:18.473Z,64.48
2018-12-29T18:31:21.877Z,64.53
2018-12-29T18:36:25.373Z,64.53
2018-12-29T18:41:28.818Z,64.71
2018-12-29T18:46:33.024Z,64.57
2018-12-29T18:51:36.437Z,64.27
2018-12-29T18:56:45.533Z,64.43
2018-12-29T19:01:43.447Z,64.24
2018-12-29T19:06:48.185Z,63.94
2018-12-29T19:11:50.263Z,64.15
2018-12-29T19:16:53.740Z,63.75
2018-12-29T19:21:57.148Z,63.59
2018-12-29T19:27:00.584Z,63.76
2018-12-29T19:32:04.174Z,63.50
2018-12-29T19:37:07.844Z,63.91
2018-12-29T19:42:11.262Z,64.20
2018-12-29T19:47:14.770Z,64.13
2018-12-29T19:52:18.202Z,64.01
2018-12-29T19:57:21.596Z,64.13
2018-12-29T20:02:25.013Z,64.04
2018-12-29T20:07:28.441Z,64.40
2018-12-29T20:12:31.930Z,64.34
2018-12-29T20:17:35.348Z,64.59
2018-12-29T20:22:38.826Z,64.72
2018-12-29T20:27:42.192Z,64.45
2018-12-29T20:32:45.584Z,64.22
2018-12-29T20:37:49.066Z,64.59
2018-12-29T20:42:52.429Z,64.56
2018-12-29T20:47:55.948Z,64.20
2018-12-29T20:52:59.594Z,64.55
2018-12-29T20:58:03.149Z,64.24
2018-12-29T21:03:06.542Z,64.32
2018-12-29T21:08:09.936Z,64.35
2018-12-29T21:13:13.487Z,64.32
2018-12-29T21:18:16.894Z,64.90
2018-12-29T21:23:20.425Z,64.78
2018-12-29T21:28:23.824Z,65.07
2018-12-29T21:33:27.212Z,65.12
2018-12-29T21:38:30.724Z,65.05
2018-12-29T21:43:34.217Z,65.40
2018-12-29T21:48:37.674Z,65.30
2018-12-29T21:53:41.107Z,65.58
2018-12-29T21:58:44.609Z,65.77
2018-12-29T22:03:48.136Z,65.82
2018-12-29T22:08:51.555Z,65.59
2018-12-29T22:13:55.065Z,65.94
2018-12-29T22:18:58.480Z,65.66
2018-12-29T22:24:01.857Z,65.48
2018-12-29T22:29:05.304Z,65.62
2018-12-29T22:34:08.781Z,65.63
2018-12-29T22:39:12.181Z,65.48
2018-12-29T22:44:16.614Z,65.70
2018-12-29T22:49:19.884Z,65.55
2018-12-29T22:54:23.240Z,65.75
2018-12-29T22:59:26.658Z,65.86
2018-12-29T23:04:29.980Z,65.36
2018-12-29T23:09:33.344Z,65.45
2018-12-29T23:14:36.688Z,65.35
2018-12-29T23:19:39.996Z,65.05
2018-12-29T23:24:43.335Z,64.99
2018-12-29T23:29:46.603Z,64.57
2018-12-29T23:34:49.945Z,64.33
2018-12-29T23:39:53.241Z,64.46
2018-12-29T23:44:56.504Z,64.61
2018-12-29T23:49:59.958Z,64.58
2018-12-29T23:55:03.285Z,64.71
